Time;durP1;ratioP1;P1;durP2;ratioP2;P2;SDS_P1;SDS_P2;PMS_P1;PMS_P2;Temp;Humidity;BMP_temperature;BMP_pressure;BME280_temperature;BME280_humidity;BME280_pressure;Samples;Min_cycle;Max_cycle;Signal;HPM_P1;HPM_P2
2021/08/30 00:01:59;;;;;;;3.17;2.13;;;;;;;;;;5054337;28;20237;-64
2021/08/30 00:04:24;;;;;;;2.83;2.20;;;;;;;;;;5054476;28;20720;-63
2021/08/30 00:06:50;;;;;;;2.63;2.43;;;;;;;;;;5053103;28;20240;-63
2021/08/30 00:09:16;;;;;;;3.20;2.90;;;;;;;;;;5054215;28;20228;-63
2021/08/30 00:11:41;;;;;;;2.60;2.40;;;;;;;;;;5053841;28;20316;-62
2021/08/30 00:14:07;;;;;;;2.73;2.47;;;;;;;;;;5054020;28;20460;-63
2021/08/30 00:16:32;;;;;;;2.17;1.97;;;;;;;;;;5035977;28;20225;-63
2021/08/30 00:18:58;;;;;;;3.77;3.37;;;;;;;;;;5054230;28;20292;-63
2021/08/30 00:21:23;;;;;;;2.67;2.47;;;;;;;;;;5053832;28;20229;-63
2021/08/30 00:23:48;;;;;;;3.10;2.80;;;;;;;;;;5053008;28;20719;-63
2021/08/30 00:26:17;;;;;;;3.10;2.40;;;;;;;;;;5054180;28;20304;-63
2021/08/30 00:28:42;;;;;;;3.63;2.90;;;;;;;;;;5053704;28;20217;-63
2021/08/30 00:31:07;;;;;;;2.90;2.70;;;;;;;;;;5052946;28;20487;-63
2021/08/30 00:33:32;;;;;;;3.50;2.73;;;;;;;;;;5053949;28;20263;-63
2021/08/30 00:35:58;;;;;;;3.20;2.90;;;;;;;;;;5053106;28;20650;-63
2021/08/30 00:38:23;;;;;;;3.23;2.80;;;;;;;;;;5053363;28;20221;-63
2021/08/30 00:40:48;;;;;;;3.27;2.97;;;;;;;;;;5052648;28;20229;-63
2021/08/30 00:43:14;;;;;;;3.30;3.00;;;;;;;;;;5053836;28;20332;-63
2021/08/30 00:45:39;;;;;;;2.67;2.47;;;;;;;;;;5052828;28;20233;-63
2021/08/30 00:48:05;;;;;;;4.47;4.10;;;;;;;;;;5053173;28;20256;-63
2021/08/30 00:50:30;;;;;;;3.30;3.00;;;;;;;;;;5053750;28;20278;-64
2021/08/30 00:52:56;;;;;;;4.13;3.83;;;;;;;;;;5052915;28;20456;-63
2021/08/30 00:55:21;;;;;;;3.80;2.83;;;;;;;;;;5052902;28;20217;-63
2021/08/30 00:57:47;;;;;;;4.00;3.60;;;;;;;;;;5053084;28;20213;-63
2021/08/30 01:00:14;;;;;;;3.20;2.90;;;;;;;;;;5053515;28;20245;-64
2021/08/30 01:02:40;;;;;;;3.70;2.97;;;;;;;;;;5052228;28;20471;-64
2021/08/30 01:05:07;;;;;;;3.40;3.00;;;;;;;;;;5053149;28;20789;-64
2021/08/30 01:08:00;;;;;;;3.47;3.17;;;;;;;;;;5053500;28;20544;-63
2021/08/30 01:10:36;;;;;;;3.60;3.30;;;;;;;;;;5052079;28;20520;-64
2021/08/30 01:13:06;;;;;;;2.70;2.50;;;;;;;;;;5035878;28;20474;-63
2021/08/30 01:15:39;;;;;;;3.67;3.00;;;;;;;;;;5035739;28;20459;-63
2021/08/30 01:18:07;;;;;;;2.80;2.60;;;;;;;;;;5036239;28;20467;-63
2021/08/30 01:20:53;;;;;;;2.73;2.50;;;;;;;;;;5035060;28;20463;-64
2021/08/30 01:23:21;;;;;;;3.00;2.70;;;;;;;;;;5052952;28;20456;-64
2021/08/30 01:25:47;;;;;;;2.80;2.60;;;;;;;;;;5035557;28;20508;-64
2021/08/30 01:28:12;;;;;;;2.97;2.77;;;;;;;;;;5035354;28;20991;-63
2021/08/30 01:30:39;;;;;;;3.30;3.00;;;;;;;;;;5035678;28;20248;-63
2021/08/30 01:33:04;;;;;;;3.93;3.40;;;;;;;;;;5053161;28;20241;-63
2021/08/30 01:35:31;;;;;;;3.53;3.20;;;;;;;;;;5052160;28;20451;-63
2021/08/30 01:38:03;;;;;;;3.40;3.00;;;;;;;;;;5053113;28;20676;-63
2021/08/30 01:40:30;;;;;;;4.30;3.10;;;;;;;;;;5023074;28;20476;-63
2021/08/30 01:42:57;;;;;;;3.07;2.87;;;;;;;;;;5012010;28;20470;-63
2021/08/30 01:45:28;;;;;;;3.07;2.77;;;;;;;;;;5012304;28;20457;-64
2021/08/30 01:47:57;;;;;;;3.20;2.97;;;;;;;;;;5012956;28;20511;-64
2021/08/30 01:50:24;;;;;;;3.30;3.00;;;;;;;;;;5011740;28;20476;-64
2021/08/30 01:52:50;;;;;;;3.50;3.20;;;;;;;;;;5013098;28;20442;-64
2021/08/30 01:55:32;;;;;;;2.80;2.60;;;;;;;;;;5013870;28;20468;-63
2021/08/30 02:00:46;;;;;;;3.13;2.83;;;;;;;;;;5011702;28;20790;-64
2021/08/30 02:03:14;;;;;;;3.10;2.80;;;;;;;;;;5013167;28;20465;-64
2021/08/30 02:05:41;;;;;;;3.03;2.83;;;;;;;;;;5015840;28;20543;-64
2021/08/30 02:08:06;;;;;;;3.40;3.10;;;;;;;;;;5015104;28;20963;-64
2021/08/30 02:10:32;;;;;;;3.17;2.97;;;;;;;;;;5016177;28;20457;-64
2021/08/30 02:12:57;;;;;;;2.70;2.50;;;;;;;;;;5016874;28;20218;-63
2021/08/30 02:15:22;;;;;;;3.10;2.80;;;;;;;;;;5015871;28;20227;-62
2021/08/30 02:17:50;;;;;;;3.83;3.53;;;;;;;;;;5013784;28;20226;-63
2021/08/30 02:20:18;;;;;;;3.07;2.87;;;;;;;;;;4998796;28;20250;-63
2021/08/30 02:22:44;;;;;;;4.00;3.70;;;;;;;;;;5014684;28;20469;-63
2021/08/30 02:25:13;;;;;;;3.83;3.53;;;;;;;;;;5015013;28;20557;-62
2021/08/30 02:27:45;;;;;;;3.37;3.07;;;;;;;;;;5016512;28;20918;-63
2021/08/30 02:30:17;;;;;;;3.90;3.60;;;;;;;;;;5015666;28;20500;-63
2021/08/30 02:32:45;;;;;;;3.17;2.93;;;;;;;;;;5016122;28;20857;-64
2021/08/30 02:35:13;;;;;;;4.00;3.30;;;;;;;;;;5016125;28;20473;-64
2021/08/30 02:37:40;;;;;;;4.37;4.00;;;;;;;;;;5015118;28;20469;-63
2021/08/30 02:40:08;;;;;;;3.83;3.53;;;;;;;;;;5026675;28;20479;-63
2021/08/30 02:42:33;;;;;;;4.20;3.57;;;;;;;;;;5069216;28;20979;-64
2021/08/30 02:45:04;;;;;;;3.63;3.23;;;;;;;;;;5048118;28;20534;-64
2021/08/30 02:47:30;;;;;;;3.80;3.50;;;;;;;;;;5061366;28;20462;-64
2021/08/30 02:49:56;;;;;;;3.67;3.37;;;;;;;;;;5047910;28;20819;-64
2021/08/30 02:52:23;;;;;;;3.63;3.33;;;;;;;;;;5050838;28;20505;-64
2021/08/30 02:54:50;;;;;;;3.77;2.97;;;;;;;;;;5046755;28;20300;-63
2021/08/30 02:57:16;;;;;;;4.13;3.30;;;;;;;;;;5050936;28;20468;-63
2021/08/30 02:59:42;;;;;;;4.23;3.83;;;;;;;;;;5048889;28;20482;-63
2021/08/30 03:02:09;;;;;;;3.17;2.97;;;;;;;;;;5043604;28;20481;-64
2021/08/30 03:04:35;;;;;;;3.93;3.53;;;;;;;;;;5046824;28;20221;-64
2021/08/30 03:07:01;;;;;;;3.83;3.50;;;;;;;;;;5050638;28;20467;-64
2021/08/30 03:09:27;;;;;;;4.43;3.50;;;;;;;;;;5047956;28;20487;-63
2021/08/30 03:11:53;;;;;;;3.40;3.10;;;;;;;;;;5043796;28;20455;-63
2021/08/30 03:14:23;;;;;;;5.10;3.83;;;;;;;;;;5046637;28;20222;-63
2021/08/30 03:17:01;;;;;;;3.57;3.27;;;;;;;;;;5067605;28;20459;-64
2021/08/30 03:19:28;;;;;;;4.00;3.60;;;;;;;;;;5049426;28;20798;-63
2021/08/30 03:21:54;;;;;;;6.50;4.40;;;;;;;;;;5049115;28;20471;-64
2021/08/30 03:24:19;;;;;;;4.00;3.67;;;;;;;;;;5067922;28;20459;-63
2021/08/30 03:26:46;;;;;;;4.10;3.60;;;;;;;;;;5063005;28;20829;-64
2021/08/30 03:29:11;;;;;;;4.60;3.27;;;;;;;;;;5043382;28;20247;-63
2021/08/30 03:31:37;;;;;;;3.83;3.37;;;;;;;;;;5066327;28;20471;-64
2021/08/30 03:34:03;;;;;;;4.20;3.80;;;;;;;;;;5050027;28;20306;-64
2021/08/30 03:36:28;;;;;;;3.83;3.53;;;;;;;;;;5045217;28;20462;-65
2021/08/30 03:38:56;;;;;;;5.40;4.57;;;;;;;;;;5043920;28;20682;-64
2021/08/30 03:41:22;;;;;;;3.83;3.53;;;;;;;;;;5047468;28;20225;-64
2021/08/30 03:43:47;;;;;;;3.73;3.43;;;;;;;;;;5049759;28;20459;-63
2021/08/30 03:46:13;;;;;;;4.90;4.50;;;;;;;;;;5045587;28;20671;-63
2021/08/30 03:48:38;;;;;;;10.33;9.23;;;;;;;;;;5043482;28;20546;-63
2021/08/30 03:51:04;;;;;;;16.40;13.00;;;;;;;;;;5065317;28;20341;-64
2021/08/30 03:53:30;;;;;;;18.40;14.23;;;;;;;;;;5059490;28;20220;-64
2021/08/30 03:55:57;;;;;;;10.93;9.83;;;;;;;;;;5048414;28;20466;-64
2021/08/30 03:58:23;;;;;;;10.83;8.60;;;;;;;;;;5055189;28;20228;-63
2021/08/30 04:00:49;;;;;;;7.77;6.97;;;;;;;;;;5047722;28;20468;-64
2021/08/30 04:03:16;;;;;;;6.47;5.87;;;;;;;;;;5049780;28;20470;-63
2021/08/30 04:05:42;;;;;;;8.00;5.73;;;;;;;;;;5045049;28;20216;-63
2021/08/30 04:08:08;;;;;;;5.77;5.33;;;;;;;;;;5042748;28;20467;-62
2021/08/30 04:10:34;;;;;;;5.70;5.20;;;;;;;;;;5073646;28;20455;-63
2021/08/30 04:13:00;;;;;;;6.27;5.67;;;;;;;;;;5060583;28;20471;-62
2021/08/30 04:15:25;;;;;;;6.07;5.20;;;;;;;;;;5047030;28;20216;-63
2021/08/30 04:17:50;;;;;;;8.33;5.17;;;;;;;;;;5067460;28;20223;-63
2021/08/30 04:20:15;;;;;;;7.40;6.70;;;;;;;;;;5043990;28;20613;-63
2021/08/30 04:22:41;;;;;;;5.90;5.40;;;;;;;;;;5042386;28;20287;-63
2021/08/30 04:25:06;;;;;;;6.40;5.80;;;;;;;;;;5065881;28;20279;-63
2021/08/30 04:27:32;;;;;;;6.60;6.00;;;;;;;;;;5067168;28;20303;-63
2021/08/30 04:29:58;;;;;;;7.30;6.60;;;;;;;;;;5066177;28;20244;-64
2021/08/30 04:32:23;;;;;;;7.03;6.43;;;;;;;;;;5066471;28;20533;-64
2021/08/30 04:34:48;;;;;;;7.07;6.47;;;;;;;;;;5061239;28;20228;-63
2021/08/30 04:37:14;;;;;;;10.00;6.70;;;;;;;;;;5059996;28;20618;-63
2021/08/30 04:39:39;;;;;;;6.73;6.23;;;;;;;;;;5065641;28;20224;-63
2021/08/30 04:42:05;;;;;;;7.00;6.30;;;;;;;;;;5067079;28;20314;-63
2021/08/30 04:44:31;;;;;;;7.10;6.50;;;;;;;;;;5060499;28;20227;-63
2021/08/30 04:46:56;;;;;;;7.50;6.80;;;;;;;;;;5059394;28;20486;-64
2021/08/30 04:49:22;;;;;;;8.60;6.83;;;;;;;;;;5066173;28;20485;-64
2021/08/30 04:51:47;;;;;;;7.47;6.73;;;;;;;;;;5067084;28;20224;-64
2021/08/30 04:54:12;;;;;;;8.17;7.37;;;;;;;;;;5059818;28;20244;-64
2021/08/30 04:56:37;;;;;;;9.97;7.23;;;;;;;;;;5058984;28;20248;-64
2021/08/30 04:59:03;;;;;;;7.70;7.00;;;;;;;;;;5067416;28;20221;-63
2021/08/30 05:01:28;;;;;;;7.43;6.73;;;;;;;;;;5048623;28;20564;-63
2021/08/30 05:03:53;;;;;;;9.63;8.73;;;;;;;;;;5059253;28;20217;-63
2021/08/30 05:06:19;;;;;;;9.20;8.30;;;;;;;;;;5060379;28;20548;-63
2021/08/30 05:08:44;;;;;;;8.00;7.20;;;;;;;;;;5066623;28;20680;-63
2021/08/30 05:11:09;;;;;;;7.90;7.20;;;;;;;;;;5065606;28;20247;-63
2021/08/30 05:13:35;;;;;;;7.87;7.07;;;;;;;;;;5059367;28;20224;-63
2021/08/30 05:16:01;;;;;;;8.43;7.63;;;;;;;;;;5060839;28;20225;-63
2021/08/30 05:18:26;;;;;;;8.60;7.80;;;;;;;;;;5065216;28;20464;-63
2021/08/30 05:20:52;;;;;;;8.50;7.70;;;;;;;;;;5065978;28;20340;-63
2021/08/30 05:23:18;;;;;;;8.27;7.57;;;;;;;;;;5059440;28;20217;-63
2021/08/30 05:25:44;;;;;;;7.97;7.17;;;;;;;;;;5060181;28;20513;-63
2021/08/30 05:28:09;;;;;;;6.80;6.20;;;;;;;;;;5072072;28;20287;-64
2021/08/30 05:30:35;;;;;;;7.33;6.53;;;;;;;;;;5059981;28;20600;-64
2021/08/30 05:33:00;;;;;;;8.77;7.90;;;;;;;;;;5066415;28;20593;-64
2021/08/30 05:35:25;;;;;;;10.60;8.43;;;;;;;;;;5047048;28;20246;-64
2021/08/30 05:37:51;;;;;;;9.53;8.63;;;;;;;;;;5059674;28;20212;-63
2021/08/30 05:40:16;;;;;;;8.87;8.07;;;;;;;;;;5062945;28;20563;-64
2021/08/30 05:42:41;;;;;;;9.23;8.27;;;;;;;;;;5069628;28;20308;-63
2021/08/30 05:45:07;;;;;;;9.27;8.47;;;;;;;;;;5068909;28;20307;-63
2021/08/30 05:47:33;;;;;;;8.80;8.00;;;;;;;;;;5063187;28;20216;-63
2021/08/30 05:49:58;;;;;;;10.10;9.10;;;;;;;;;;5064468;28;20486;-63
2021/08/30 05:52:25;;;;;;;11.60;10.00;;;;;;;;;;5069247;28;20213;-64
2021/08/30 05:54:50;;;;;;;11.60;10.50;;;;;;;;;;5059022;28;20668;-64
2021/08/30 05:57:15;;;;;;;11.73;10.60;;;;;;;;;;5069920;28;20464;-64
2021/08/30 05:59:40;;;;;;;13.10;11.43;;;;;;;;;;5067782;28;20687;-64
2021/08/30 06:02:06;;;;;;;12.33;11.13;;;;;;;;;;5063094;28;20228;-64
2021/08/30 06:04:32;;;;;;;12.63;11.33;;;;;;;;;;5064217;28;20236;-64
2021/08/30 06:06:57;;;;;;;11.80;10.60;;;;;;;;;;5069183;28;20221;-63
2021/08/30 06:09:22;;;;;;;13.03;11.73;;;;;;;;;;5050337;28;20231;-64
2021/08/30 06:11:50;;;;;;;12.20;10.90;;;;;;;;;;5063047;28;20660;-64
2021/08/30 06:14:15;;;;;;;12.67;11.37;;;;;;;;;;5063910;28;20558;-64
2021/08/30 06:16:40;;;;;;;13.37;11.13;;;;;;;;;;5069202;28;20466;-64
2021/08/30 06:19:06;;;;;;;11.07;9.97;;;;;;;;;;5056385;28;20246;-63
2021/08/30 06:21:31;;;;;;;13.47;11.00;;;;;;;;;;5068807;28;20236;-63
2021/08/30 06:23:56;;;;;;;10.33;9.33;;;;;;;;;;5067396;28;20685;-63
2021/08/30 06:26:22;;;;;;;13.20;10.70;;;;;;;;;;5062283;28;20223;-63
2021/08/30 06:28:47;;;;;;;14.13;10.67;;;;;;;;;;5064805;28;20292;-64
2021/08/30 06:31:12;;;;;;;12.50;11.23;;;;;;;;;;5068722;28;20608;-63
2021/08/30 06:33:37;;;;;;;12.27;10.97;;;;;;;;;;5066718;28;20287;-64
2021/08/30 06:36:03;;;;;;;11.97;10.73;;;;;;;;;;5062712;28;20303;-64
2021/08/30 06:38:28;;;;;;;11.57;10.33;;;;;;;;;;5064028;28;20270;-63
2021/08/30 06:40:53;;;;;;;10.67;9.67;;;;;;;;;;5068509;28;20221;-63
2021/08/30 06:43:18;;;;;;;12.23;11.00;;;;;;;;;;5066832;28;20708;-64
2021/08/30 06:45:44;;;;;;;11.43;10.43;;;;;;;;;;5061737;28;20216;-63
2021/08/30 06:48:09;;;;;;;11.60;10.60;;;;;;;;;;5065013;28;20245;-63
2021/08/30 06:50:34;;;;;;;11.27;9.80;;;;;;;;;;5068397;28;20228;-63
2021/08/30 06:53:00;;;;;;;13.80;10.60;;;;;;;;;;5065907;28;20216;-63
2021/08/30 06:55:25;;;;;;;11.03;9.90;;;;;;;;;;5061050;28;20221;-64
2021/08/30 06:57:50;;;;;;;11.40;10.20;;;;;;;;;;5048380;28;20213;-63
2021/08/30 07:00:19;;;;;;;10.57;9.47;;;;;;;;;;5068928;28;20233;-63
2021/08/30 07:02:45;;;;;;;12.63;10.37;;;;;;;;;;5064061;28;20221;-64
2021/08/30 07:05:10;;;;;;;9.77;8.83;;;;;;;;;;5061818;28;20520;-64
2021/08/30 07:07:36;;;;;;;10.60;9.37;;;;;;;;;;5065234;28;20503;-65
2021/08/30 07:10:01;;;;;;;13.50;9.33;;;;;;;;;;5068421;28;20225;-64
2021/08/30 07:12:26;;;;;;;11.70;9.30;;;;;;;;;;5063938;28;20723;-64
2021/08/30 07:14:52;;;;;;;10.10;9.03;;;;;;;;;;5061846;28;20265;-65
2021/08/30 07:17:17;;;;;;;10.40;9.40;;;;;;;;;;5065658;28;20232;-65
2021/08/30 07:19:42;;;;;;;10.20;9.00;;;;;;;;;;5057097;28;20311;-64
2021/08/30 07:22:07;;;;;;;11.20;8.77;;;;;;;;;;5065148;28;20228;-65
2021/08/30 07:24:33;;;;;;;9.10;8.27;;;;;;;;;;5050538;28;20287;-65
2021/08/30 07:27:02;;;;;;;11.00;9.90;;;;;;;;;;5046266;28;20731;-65
2021/08/30 07:29:28;;;;;;;12.17;9.87;;;;;;;;;;5060586;28;20702;-66
2021/08/30 07:31:53;;;;;;;9.77;8.77;;;;;;;;;;5065586;28;20463;-65
2021/08/30 07:34:18;;;;;;;9.87;8.97;;;;;;;;;;5067846;28;21059;-66
2021/08/30 07:36:43;;;;;;;12.60;10.10;;;;;;;;;;5063292;28;20296;-65
2021/08/30 07:39:09;;;;;;;9.33;8.43;;;;;;;;;;5061295;28;20676;-66
2021/08/30 07:41:35;;;;;;;9.73;8.73;;;;;;;;;;5064746;28;20249;-66
2021/08/30 07:44:00;;;;;;;10.30;9.40;;;;;;;;;;5067424;28;20299;-65
2021/08/30 07:46:26;;;;;;;12.13;10.83;;;;;;;;;;5063004;28;20524;-65
2021/08/30 07:48:51;;;;;;;10.87;9.77;;;;;;;;;;5060876;28;20542;-65
2021/08/30 07:51:18;;;;;;;10.57;9.47;;;;;;;;;;5065352;28;20562;-65
2021/08/30 07:53:44;;;;;;;11.60;10.40;;;;;;;;;;5067359;28;20221;-66
2021/08/30 07:56:09;;;;;;;12.90;10.57;;;;;;;;;;5063037;28;20466;-65
2021/08/30 07:58:35;;;;;;;12.10;9.90;;;;;;;;;;5059766;28;20684;-64
2021/08/30 08:01:00;;;;;;;11.60;9.73;;;;;;;;;;5065833;28;20456;-64
2021/08/30 08:03:25;;;;;;;11.27;10.13;;;;;;;;;;5066567;28;20227;-63
2021/08/30 08:05:50;;;;;;;12.77;10.00;;;;;;;;;;5061846;28;20220;-64
2021/08/30 08:08:16;;;;;;;9.90;8.10;;;;;;;;;;5059942;28;20213;-63
2021/08/30 08:10:43;;;;;;;11.60;9.50;;;;;;;;;;5066106;28;20582;-65
2021/08/30 08:13:08;;;;;;;9.60;7.70;;;;;;;;;;5054691;28;20217;-65
2021/08/30 08:15:33;;;;;;;11.77;8.70;;;;;;;;;;5054521;28;20470;-64
2021/08/30 08:17:59;;;;;;;8.77;7.70;;;;;;;;;;5061601;28;20236;-64
2021/08/30 08:20:24;;;;;;;11.47;9.20;;;;;;;;;;5063105;28;20225;-64
2021/08/30 08:22:49;;;;;;;10.87;8.30;;;;;;;;;;5041826;28;20229;-65
2021/08/30 08:25:14;;;;;;;21.53;8.80;;;;;;;;;;5064901;28;20213;-63
2021/08/30 08:27:40;;;;;;;9.27;8.47;;;;;;;;;;5067008;28;20298;-64
2021/08/30 08:30:06;;;;;;;9.30;8.23;;;;;;;;;;5048677;28;20700;-64
2021/08/30 08:32:35;;;;;;;9.10;8.20;;;;;;;;;;5055669;28;20224;-65
2021/08/30 08:35:01;;;;;;;8.70;7.80;;;;;;;;;;5063357;28;20477;-65
2021/08/30 08:37:26;;;;;;;10.27;7.90;;;;;;;;;;5056709;28;20773;-65
2021/08/30 08:39:51;;;;;;;7.50;6.80;;;;;;;;;;5043813;28;20221;-64
2021/08/30 08:42:17;;;;;;;8.00;6.53;;;;;;;;;;5060087;28;20717;-64
2021/08/30 08:44:45;;;;;;;7.80;7.00;;;;;;;;;;5065169;28;20276;-65
2021/08/30 08:47:11;;;;;;;8.07;7.27;;;;;;;;;;5053924;28;20229;-65
2021/08/30 08:49:36;;;;;;;8.27;7.30;;;;;;;;;;5065000;28;20471;-64
2021/08/30 08:52:02;;;;;;;8.00;7.20;;;;;;;;;;5066845;28;20656;-64
2021/08/30 08:54:30;;;;;;;9.10;8.20;;;;;;;;;;5053092;28;20290;-65
2021/08/30 08:56:55;;;;;;;8.40;7.60;;;;;;;;;;5066629;28;20451;-64
2021/08/30 08:59:21;;;;;;;9.53;8.63;;;;;;;;;;5060858;28;20980;-64
2021/08/30 09:01:58;;;;;;;7.90;7.17;;;;;;;;;;5058884;28;20216;-64
2021/08/30 09:04:34;;;;;;;8.53;7.73;;;;;;;;;;5061632;28;20224;-64
2021/08/30 09:07:11;;;;;;;8.03;7.33;;;;;;;;;;5059199;28;20774;-64
2021/08/30 09:09:41;;;;;;;9.30;8.40;;;;;;;;;;5034770;28;20469;-64
2021/08/30 09:12:19;;;;;;;8.77;7.93;;;;;;;;;;5066282;28;20455;-65
2021/08/30 09:14:44;;;;;;;7.23;6.53;;;;;;;;;;5060646;28;20950;-64
2021/08/30 09:17:10;;;;;;;8.00;7.30;;;;;;;;;;5047471;28;20485;-64
2021/08/30 09:19:36;;;;;;;6.93;6.33;;;;;;;;;;5062351;28;20225;-64
2021/08/30 09:22:02;;;;;;;7.20;6.60;;;;;;;;;;5068788;28;20684;-63
2021/08/30 09:24:28;;;;;;;6.73;6.23;;;;;;;;;;5070887;28;20466;-63
2021/08/30 09:27:07;;;;;;;6.97;6.27;;;;;;;;;;5064990;28;20538;-64
2021/08/30 09:29:43;;;;;;;7.90;7.20;;;;;;;;;;5063624;28;20254;-65
2021/08/30 09:32:15;;;;;;;7.53;6.93;;;;;;;;;;5065122;28;20481;-65
2021/08/30 09:34:46;;;;;;;7.53;6.90;;;;;;;;;;5069872;28;20861;-64
2021/08/30 09:37:18;;;;;;;7.40;6.80;;;;;;;;;;5066408;28;20815;-64
2021/08/30 09:40:14;;;;;;;7.27;6.67;;;;;;;;;;5075988;28;20502;-65
2021/08/30 09:42:47;;;;;;;7.60;7.00;;;;;;;;;;5060494;28;20950;-64
2021/08/30 09:45:15;;;;;;;6.00;5.43;;;;;;;;;;5064971;28;20474;-64
2021/08/30 09:47:55;;;;;;;7.70;7.00;;;;;;;;;;5073363;28;20454;-64
2021/08/30 09:50:27;;;;;;;7.40;6.80;;;;;;;;;;5062865;28;20473;-64
2021/08/30 09:52:52;;;;;;;6.30;5.70;;;;;;;;;;5050759;28;20562;-64
2021/08/30 09:55:18;;;;;;;8.40;7.60;;;;;;;;;;5045519;28;20560;-64
2021/08/30 09:57:49;;;;;;;5.53;5.10;;;;;;;;;;5068153;28;20229;-64
2021/08/30 10:00:14;;;;;;;7.30;6.17;;;;;;;;;;5069776;28;20290;-64
2021/08/30 10:02:42;;;;;;;6.87;6.27;;;;;;;;;;5061340;28;21008;-64
2021/08/30 10:05:08;;;;;;;6.70;5.97;;;;;;;;;;5040515;28;20604;-64
2021/08/30 10:07:35;;;;;;;7.40;6.67;;;;;;;;;;5049573;28;20463;-64
2021/08/30 10:10:01;;;;;;;7.00;6.30;;;;;;;;;;5069859;28;20470;-65
2021/08/30 10:12:27;;;;;;;7.20;6.57;;;;;;;;;;5056112;28;20509;-65
2021/08/30 10:14:52;;;;;;;8.30;7.60;;;;;;;;;;5037631;28;20456;-64
2021/08/30 10:17:18;;;;;;;7.47;6.77;;;;;;;;;;5068023;28;20247;-65
2021/08/30 10:19:43;;;;;;;6.43;5.93;;;;;;;;;;5059304;28;20224;-64
2021/08/30 10:22:17;;;;;;;7.03;6.43;;;;;;;;;;5065564;28;20252;-63
2021/08/30 10:24:43;;;;;;;6.20;5.67;;;;;;;;;;5059319;28;20224;-64
2021/08/30 10:27:10;;;;;;;6.43;5.93;;;;;;;;;;5074269;28;20476;-63
2021/08/30 10:29:38;;;;;;;5.93;5.40;;;;;;;;;;5044782;28;20216;-63
2021/08/30 10:32:04;;;;;;;6.57;6.00;;;;;;;;;;5063795;28;20551;-64
2021/08/30 10:34:34;;;;;;;5.70;5.20;;;;;;;;;;5069713;28;20484;-64
2021/08/30 10:37:02;;;;;;;6.27;5.77;;;;;;;;;;5063962;28;20541;-64
2021/08/30 10:39:56;;;;;;;6.03;5.53;;;;;;;;;;5067612;28;20497;-64
2021/08/30 10:42:22;;;;;;;8.00;7.30;;;;;;;;;;5040097;28;20822;-64
2021/08/30 10:44:57;;;;;;;8.10;7.40;;;;;;;;;;5066268;28;20470;-65
2021/08/30 10:47:33;;;;;;;6.50;5.90;;;;;;;;;;5053390;28;20224;-63
2021/08/30 10:49:58;;;;;;;7.67;6.97;;;;;;;;;;5063442;28;20529;-64
2021/08/30 10:52:24;;;;;;;6.63;5.87;;;;;;;;;;5068855;28;20468;-63
2021/08/30 10:54:57;;;;;;;6.00;5.40;;;;;;;;;;5049642;28;20295;-63
2021/08/30 10:57:32;;;;;;;6.40;5.80;;;;;;;;;;5061388;28;20224;-64
2021/08/30 10:59:58;;;;;;;5.87;5.33;;;;;;;;;;5061811;28;20475;-64
2021/08/30 11:02:35;;;;;;;5.97;5.47;;;;;;;;;;5067226;28;20548;-64
2021/08/30 11:05:01;;;;;;;6.00;5.50;;;;;;;;;;5068718;28;20220;-65
2021/08/30 11:07:26;;;;;;;5.70;5.20;;;;;;;;;;5063767;28;20945;-65
2021/08/30 11:09:51;;;;;;;5.80;5.23;;;;;;;;;;5061614;28;20258;-66
2021/08/30 11:12:17;;;;;;;5.87;5.37;;;;;;;;;;5066473;28;20225;-65
2021/08/30 11:14:42;;;;;;;5.30;4.80;;;;;;;;;;5055327;28;20552;-64
2021/08/30 11:17:13;;;;;;;5.40;5.00;;;;;;;;;;5045948;28;20608;-64
2021/08/30 11:19:38;;;;;;;5.27;4.87;;;;;;;;;;5043669;28;20313;-65
2021/08/30 11:22:06;;;;;;;7.43;5.33;;;;;;;;;;5066069;28;20999;-65
2021/08/30 11:24:35;;;;;;;6.47;5.80;;;;;;;;;;5039936;28;20720;-65
2021/08/30 11:27:11;;;;;;;5.40;4.90;;;;;;;;;;5072405;28;20477;-64
2021/08/30 11:29:42;;;;;;;5.20;4.80;;;;;;;;;;5060911;28;20964;-66
2021/08/30 11:32:08;;;;;;;5.43;4.93;;;;;;;;;;5074442;28;20926;-64
2021/08/30 11:34:36;;;;;;;7.37;6.33;;;;;;;;;;5060260;28;20481;-65
2021/08/30 11:37:02;;;;;;;6.30;5.80;;;;;;;;;;5061807;28;20305;-65
2021/08/30 11:39:29;;;;;;;6.20;5.70;;;;;;;;;;5048341;28;20501;-65
2021/08/30 11:41:58;;;;;;;6.27;5.67;;;;;;;;;;5066142;28;20801;-64
2021/08/30 11:44:23;;;;;;;6.20;5.60;;;;;;;;;;5060519;28;20470;-64
2021/08/30 11:46:54;;;;;;;6.47;5.73;;;;;;;;;;5062624;28;20836;-63
2021/08/30 11:49:19;;;;;;;6.03;5.53;;;;;;;;;;5051006;28;20225;-64
2021/08/30 11:51:46;;;;;;;6.40;5.67;;;;;;;;;;5066631;28;20528;-64
2021/08/30 11:54:18;;;;;;;5.20;4.80;;;;;;;;;;5061420;28;20672;-65
2021/08/30 11:56:52;;;;;;;5.87;5.37;;;;;;;;;;5043271;28;20888;-65
2021/08/30 11:59:25;;;;;;;5.73;5.13;;;;;;;;;;5065250;28;20460;-65
2021/08/30 12:01:50;;;;;;;5.83;5.27;;;;;;;;;;5067076;28;20479;-64
2021/08/30 12:04:17;;;;;;;4.90;4.50;;;;;;;;;;5064084;28;20459;-63
2021/08/30 12:06:53;;;;;;;5.70;5.20;;;;;;;;;;5059846;28;20229;-65
2021/08/30 12:09:19;;;;;;;6.03;5.53;;;;;;;;;;5063360;28;20475;-64
2021/08/30 12:11:47;;;;;;;5.67;4.60;;;;;;;;;;5067541;28;20521;-63
2021/08/30 12:14:12;;;;;;;7.13;4.60;;;;;;;;;;5049186;28;20464;-64
2021/08/30 12:16:38;;;;;;;5.40;4.90;;;;;;;;;;5055624;28;20524;-64
2021/08/30 12:19:07;;;;;;;4.83;4.43;;;;;;;;;;5062713;28;20586;-64
2021/08/30 12:21:34;;;;;;;3.97;3.63;;;;;;;;;;5066698;28;20217;-65
2021/08/30 12:24:00;;;;;;;4.40;3.50;;;;;;;;;;5036056;28;20955;-65
2021/08/30 12:26:25;;;;;;;4.90;4.30;;;;;;;;;;5071072;28;20470;-65
2021/08/30 12:28:58;;;;;;;3.60;3.30;;;;;;;;;;5061525;28;20225;-65
2021/08/30 12:31:32;;;;;;;4.67;4.27;;;;;;;;;;5066587;28;20550;-64
2021/08/30 12:34:17;;;;;;;4.47;3.33;;;;;;;;;;5066975;28;20450;-64
2021/08/30 12:36:44;;;;;;;3.90;3.47;;;;;;;;;;5063440;28;20454;-65
2021/08/30 12:39:09;;;;;;;3.80;3.50;;;;;;;;;;5048370;28;20471;-65
2021/08/30 12:41:34;;;;;;;4.80;4.40;;;;;;;;;;5063027;28;20487;-64
2021/08/30 12:44:02;;;;;;;4.50;4.10;;;;;;;;;;5060150;28;20537;-65
2021/08/30 12:46:28;;;;;;;4.37;4.00;;;;;;;;;;5045204;28;20603;-65
2021/08/30 12:48:53;;;;;;;5.70;4.67;;;;;;;;;;5065781;28;20505;-68
2021/08/30 12:51:20;;;;;;;4.67;4.27;;;;;;;;;;5063717;28;20251;-64
2021/08/30 12:53:45;;;;;;;4.70;4.30;;;;;;;;;;5056644;28;20216;-65
2021/08/30 12:56:10;;;;;;;4.43;4.00;;;;;;;;;;5045503;28;20463;-66
2021/08/30 12:58:36;;;;;;;4.30;4.00;;;;;;;;;;5066859;28;20217;-65
2021/08/30 13:01:01;;;;;;;3.73;3.43;;;;;;;;;;5062547;28;20558;-66
2021/08/30 13:03:26;;;;;;;4.87;4.00;;;;;;;;;;5059190;28;20695;-65
2021/08/30 13:05:52;;;;;;;4.60;4.20;;;;;;;;;;5063976;28;20568;-65
2021/08/30 13:08:17;;;;;;;3.53;3.30;;;;;;;;;;5066984;28;20239;-65
2021/08/30 13:10:47;;;;;;;4.77;3.60;;;;;;;;;;5060963;28;20232;-65
2021/08/30 13:13:13;;;;;;;3.70;3.40;;;;;;;;;;5059715;28;20221;-63
2021/08/30 13:15:41;;;;;;;5.23;3.63;;;;;;;;;;5029493;28;20490;-64
2021/08/30 13:18:06;;;;;;;4.70;4.30;;;;;;;;;;5065489;28;20463;-65
2021/08/30 13:20:32;;;;;;;5.40;4.90;;;;;;;;;;5062985;28;20482;-64
2021/08/30 13:22:57;;;;;;;5.83;5.23;;;;;;;;;;5055674;28;20229;-64
2021/08/30 13:25:23;;;;;;;5.33;4.83;;;;;;;;;;5063417;28;20668;-65
2021/08/30 13:27:51;;;;;;;4.73;4.33;;;;;;;;;;5066987;28;20221;-62
2021/08/30 13:30:18;;;;;;;3.87;3.57;;;;;;;;;;5063961;28;20454;-71
2021/08/30 13:32:43;;;;;;;4.13;3.70;;;;;;;;;;5059045;28;20463;-65
2021/08/30 13:35:10;;;;;;;6.00;4.57;;;;;;;;;;5061774;28;20525;-64
2021/08/30 13:37:35;;;;;;;4.20;3.80;;;;;;;;;;5067176;28;20220;-65
2021/08/30 13:40:00;;;;;;;3.73;3.43;;;;;;;;;;5055916;28;20467;-65
2021/08/30 13:42:26;;;;;;;4.50;4.10;;;;;;;;;;5050883;28;20225;-65
2021/08/30 13:44:51;;;;;;;4.27;3.87;;;;;;;;;;5050875;28;20282;-64
2021/08/30 13:47:16;;;;;;;4.20;3.80;;;;;;;;;;5051603;28;20249;-65
2021/08/30 13:49:42;;;;;;;4.50;4.10;;;;;;;;;;5050660;28;20278;-64
2021/08/30 13:52:07;;;;;;;3.90;3.60;;;;;;;;;;5045013;28;20256;-64
2021/08/30 13:54:32;;;;;;;4.90;3.80;;;;;;;;;;5049265;28;20264;-65
2021/08/30 13:56:57;;;;;;;5.70;4.10;;;;;;;;;;5052679;28;20366;-65
2021/08/30 13:59:23;;;;;;;5.40;3.80;;;;;;;;;;5034988;28;20236;-63
2021/08/30 14:01:48;;;;;;;4.90;3.70;;;;;;;;;;5055689;28;20221;-64
2021/08/30 14:04:14;;;;;;;5.17;4.00;;;;;;;;;;5056945;28;20275;-64
2021/08/30 14:06:39;;;;;;;4.53;4.13;;;;;;;;;;5055657;28;20221;-64
2021/08/30 14:09:05;;;;;;;4.37;3.97;;;;;;;;;;5056487;28;20225;-64
2021/08/30 14:11:30;;;;;;;4.97;4.57;;;;;;;;;;5056516;28;20672;-64
2021/08/30 14:13:56;;;;;;;5.10;4.60;;;;;;;;;;5055853;28;20524;-64
2021/08/30 14:16:21;;;;;;;5.33;4.83;;;;;;;;;;5056227;28;20292;-64
2021/08/30 14:18:46;;;;;;;6.73;4.97;;;;;;;;;;5056316;28;20229;-64
2021/08/30 14:21:11;;;;;;;5.70;5.20;;;;;;;;;;5056400;28;20548;-64
2021/08/30 14:23:37;;;;;;;5.83;5.23;;;;;;;;;;5038207;28;20247;-65
2021/08/30 14:26:03;;;;;;;5.80;5.30;;;;;;;;;;5056018;28;20221;-66
2021/08/30 14:28:29;;;;;;;6.50;5.70;;;;;;;;;;5056633;28;20470;-65
2021/08/30 14:30:54;;;;;;;7.00;6.00;;;;;;;;;;5055058;28;20460;-64
2021/08/30 14:33:19;;;;;;;6.40;5.33;;;;;;;;;;5056457;28;20224;-65
2021/08/30 14:35:44;;;;;;;5.77;5.27;;;;;;;;;;5056075;28;20217;-65
2021/08/30 14:38:10;;;;;;;5.60;5.20;;;;;;;;;;5055647;28;20221;-65
2021/08/30 14:40:40;;;;;;;5.80;5.27;;;;;;;;;;5055649;28;20316;-64
2021/08/30 14:43:05;;;;;;;6.80;5.40;;;;;;;;;;5055808;28;20522;-65